Time;durP1;ratioP1;P1;durP2;ratioP2;P2;SDS_P1;SDS_P2;PMS_P1;PMS_P2;Temp;Humidity;BMP_temperature;BMP_pressure;BME280_temperature;BME280_humidity;BME280_pressure;Samples;Min_cycle;Max_cycle;Signal;HPM_P1;HPM_P2
2021/11/16 00:00:15;;;;;;;90.43;45.22;;;128.80;2252.80;;;;;;5053858;28;20037;-62
2021/11/16 00:02:41;;;;;;;84.75;43.47;;;128.80;2252.80;;;;;;5053147;28;20037;-64
2021/11/16 00:05:08;;;;;;;87.07;43.20;;;128.80;2252.80;;;;;;5053610;28;20087;-65
2021/11/16 00:07:34;;;;;;;89.57;44.45;;;128.80;2252.80;;;;;;5053682;28;20072;-63
2021/11/16 00:09:59;;;;;;;86.50;42.72;;;128.90;2252.80;;;;;;5054534;28;20045;-65
2021/11/16 00:12:26;;;;;;;82.93;40.80;;;128.80;2252.80;;;;;;5053924;28;20029;-64
2021/11/16 00:14:52;;;;;;;87.82;41.67;;;128.90;2252.80;;;;;;5053843;28;20463;-65
2021/11/16 00:17:18;;;;;;;79.25;40.20;;;128.80;2252.80;;;;;;5053474;28;20052;-62
2021/11/16 00:19:44;;;;;;;79.45;39.88;;;128.80;2252.80;;;;;;5052946;28;20116;-63
2021/11/16 00:22:16;;;;;;;79.82;39.95;;;128.80;2252.80;;;;;;5052997;28;20029;-60
2021/11/16 00:24:56;;;;;;;76.03;39.22;;;128.80;2252.80;;;;;;5054073;28;20048;-62
2021/11/16 00:27:22;;;;;;;76.03;39.33;;;128.80;2252.80;;;;;;5054963;28;20501;-67
2021/11/16 00:29:48;;;;;;;83.72;39.60;;;128.80;2252.80;;;;;;5073745;28;20012;-65
2021/11/16 00:32:14;;;;;;;75.93;39.15;;;128.80;2252.80;;;;;;5073150;28;20033;-66
2021/11/16 00:34:41;;;;;;;77.57;38.33;;;128.90;2252.80;;;;;;5073525;28;20086;-66
2021/11/16 00:37:06;;;;;;;77.93;38.33;;;128.90;2252.80;;;;;;5073645;28;20174;-65
2021/11/16 00:39:32;;;;;;;75.38;39.00;;;128.90;2252.80;;;;;;5072412;28;20070;-67
2021/11/16 00:41:58;;;;;;;75.80;37.42;;;128.90;2252.80;;;;;;5073624;28;20053;-67
2021/11/16 00:44:23;;;;;;;75.80;38.40;;;128.90;2252.80;;;;;;5073573;28;20098;-64
2021/11/16 00:46:49;;;;;;;72.13;39.65;;;128.90;2252.80;;;;;;5072768;28;20486;-66
2021/11/16 00:49:15;;;;;;;77.90;38.60;;;128.80;2252.80;;;;;;5073907;28;20112;-66
2021/11/16 00:51:42;;;;;;;78.10;37.75;;;128.90;2252.80;;;;;;5072100;28;20382;-62
2021/11/16 00:54:08;;;;;;;75.45;38.28;;;128.90;2252.80;;;;;;5072281;28;20135;-62
2021/11/16 00:56:34;;;;;;;77.22;37.72;;;128.90;2252.80;;;;;;5062501;28;20104;-66
2021/11/16 00:58:59;;;;;;;78.93;38.22;;;128.90;2252.80;;;;;;5052851;28;20036;-64
2021/11/16 01:01:25;;;;;;;76.68;39.10;;;128.90;2252.80;;;;;;5052609;28;20037;-64
2021/11/16 01:03:51;;;;;;;79.32;37.97;;;128.80;2252.80;;;;;;5053164;28;20025;-64
2021/11/16 01:06:17;;;;;;;73.57;36.65;;;128.80;2252.80;;;;;;5053257;28;20025;-64
2021/11/16 01:08:43;;;;;;;77.28;38.38;;;128.80;2252.80;;;;;;5052902;28;20041;-66
2021/11/16 01:11:08;;;;;;;76.88;37.85;;;128.90;2252.80;;;;;;5053346;28;20490;-66
2021/11/16 01:13:35;;;;;;;74.95;36.42;;;128.90;2252.80;;;;;;5052264;28;20048;-65
2021/11/16 01:16:01;;;;;;;77.20;38.33;;;128.90;2252.80;;;;;;5052739;28;20116;-66
2021/11/16 01:18:29;;;;;;;74.78;37.15;;;128.90;2252.80;;;;;;5051446;28;20119;-64
2021/11/16 01:20:56;;;;;;;76.40;37.58;;;128.90;2252.80;;;;;;5053004;28;20040;-64
2021/11/16 01:23:23;;;;;;;75.28;35.80;;;128.80;2252.80;;;;;;5051552;28;20048;-64
2021/11/16 01:25:50;;;;;;;75.22;36.60;;;128.80;2252.80;;;;;;5057066;28;20082;-67
2021/11/16 01:28:22;;;;;;;72.97;35.50;;;128.80;2252.80;;;;;;5072982;28;20390;-64
2021/11/16 01:30:50;;;;;;;73.03;37.50;;;128.80;2252.80;;;;;;5072698;28;20421;-64
2021/11/16 01:36:07;;;;;;;66.18;33.95;;;128.80;2252.80;;;;;;5070800;28;20047;-64
2021/11/16 01:38:32;;;;;;;66.43;34.03;;;128.80;2252.80;;;;;;5070290;28;20471;-66
2021/11/16 01:40:58;;;;;;;69.32;35.17;;;128.80;2252.80;;;;;;5070684;28;20051;-65
2021/11/16 01:43:24;;;;;;;68.45;32.97;;;128.80;2252.80;;;;;;5069929;28;20028;-66
2021/11/16 01:45:51;;;;;;;69.93;34.75;;;128.80;2252.80;;;;;;5070136;28;20032;-67
2021/11/16 01:48:17;;;;;;;78.55;35.75;;;128.70;2252.80;;;;;;5070558;28;20048;-67
2021/11/16 01:50:45;;;;;;;68.32;34.05;;;128.80;2252.80;;;;;;5053637;28;20040;-66
2021/11/16 01:53:11;;;;;;;63.70;32.53;;;128.70;2252.80;;;;;;5053386;28;20111;-66
2021/11/16 01:55:38;;;;;;;69.00;33.05;;;128.70;2252.80;;;;;;5067702;28;20113;-65
2021/11/16 01:58:04;;;;;;;67.38;32.90;;;128.70;2252.80;;;;;;5050148;28;20074;-66
2021/11/16 02:00:35;;;;;;;66.65;32.35;;;128.70;2252.80;;;;;;5050102;28;20040;-68
2021/11/16 02:03:01;;;;;;;61.08;30.85;;;128.70;2252.80;;;;;;5035426;28;20613;-66
2021/11/16 02:05:42;;;;;;;62.30;31.52;;;128.70;2252.80;;;;;;5051366;28;20116;-65
2021/11/16 02:08:08;;;;;;;61.33;30.85;;;128.70;2252.80;;;;;;5051939;28;20033;-66
2021/11/16 02:10:34;;;;;;;59.13;28.92;;;128.70;2252.80;;;;;;5035446;28;20386;-67
2021/11/16 02:13:03;;;;;;;60.42;30.92;;;128.70;2252.80;;;;;;5053070;28;20036;-65
2021/11/16 02:15:29;;;;;;;61.80;31.25;;;128.70;2252.80;;;;;;5053647;28;20075;-68
2021/11/16 02:17:57;;;;;;;58.05;29.10;;;128.60;2252.80;;;;;;5052754;28;20025;-67
2021/11/16 02:20:30;;;;;;;59.53;29.55;;;128.60;2252.80;;;;;;5054120;28;20382;-66
2021/11/16 02:22:56;;;;;;;58.97;29.23;;;128.70;2252.80;;;;;;5052976;28;20390;-65
2021/11/16 02:25:22;;;;;;;59.55;29.88;;;128.70;2252.80;;;;;;5052872;28;20025;-67
2021/11/16 02:27:49;;;;;;;59.75;29.40;;;128.70;2252.80;;;;;;5076103;28;20045;-66
2021/11/16 02:30:15;;;;;;;62.40;29.77;;;128.60;2252.80;;;;;;5075758;28;20029;-66
2021/11/16 02:32:46;;;;;;;59.28;29.52;;;128.60;2252.80;;;;;;5074177;28;20037;-66
2021/11/16 02:35:14;;;;;;;65.85;30.73;;;128.60;2252.80;;;;;;5076110;28;20040;-68
2021/11/16 02:37:40;;;;;;;58.08;28.60;;;128.60;2252.80;;;;;;5075692;28;20068;-63
2021/11/16 02:40:06;;;;;;;57.70;29.20;;;128.60;2252.80;;;;;;5076048;28;20075;-68
2021/11/16 02:42:34;;;;;;;59.72;28.70;;;128.50;2252.80;;;;;;5075651;28;20399;-65
2021/11/16 02:45:01;;;;;;;58.47;29.40;;;128.50;2252.80;;;;;;5075486;28;20024;-65
2021/11/16 02:47:27;;;;;;;56.92;29.42;;;128.40;2252.80;;;;;;5075425;28;20537;-63
2021/11/16 02:49:55;;;;;;;56.65;28.02;;;128.40;2252.80;;;;;;5076228;28;20032;-65
2021/11/16 02:52:22;;;;;;;58.17;28.75;;;128.40;2252.80;;;;;;5073855;28;20032;-63
2021/11/16 02:54:48;;;;;;;55.90;27.42;;;128.40;2252.80;;;;;;5075686;28;20159;-63
2021/11/16 02:57:14;;;;;;;53.83;27.40;;;128.40;2252.80;;;;;;5059829;28;20072;-62
2021/11/16 02:59:41;;;;;;;56.50;28.13;;;128.40;2252.80;;;;;;5054798;28;20044;-61
2021/11/16 03:02:08;;;;;;;57.75;28.33;;;128.30;2252.80;;;;;;5055729;28;20061;-62
2021/11/16 03:04:34;;;;;;;59.42;27.10;;;128.40;2252.80;;;;;;5055281;28;20036;-61
2021/11/16 03:07:04;;;;;;;53.92;27.33;;;128.30;2252.80;;;;;;5055522;28;20032;-62
2021/11/16 03:09:32;;;;;;;52.97;26.45;;;128.30;2252.80;;;;;;5055019;28;20037;-62
2021/11/16 03:11:59;;;;;;;51.90;26.23;;;128.30;2252.80;;;;;;5055584;28;20053;-65
2021/11/16 03:14:26;;;;;;;50.60;25.85;;;128.30;2252.80;;;;;;5054489;28;20032;-63
2021/11/16 03:16:55;;;;;;;55.50;26.30;;;128.30;2252.80;;;;;;5055246;28;20055;-64
2021/11/16 03:19:22;;;;;;;53.20;26.25;;;128.30;2252.80;;;;;;5053915;28;20121;-65
2021/11/16 03:21:55;;;;;;;52.20;25.70;;;128.30;2252.80;;;;;;5052168;28;20044;-64
2021/11/16 03:24:23;;;;;;;49.88;26.13;;;128.20;2252.80;;;;;;5057527;28;20041;-63
2021/11/16 03:26:49;;;;;;;52.83;26.27;;;128.20;2252.80;;;;;;5055724;28;20033;-62
2021/11/16 03:29:18;;;;;;;52.63;25.75;;;128.20;2252.80;;;;;;5055311;28;20051;-64
2021/11/16 03:31:52;;;;;;;53.35;26.00;;;128.10;2252.80;;;;;;5055869;28;20045;-62
2021/11/16 03:34:18;;;;;;;53.92;26.40;;;128.10;2252.80;;;;;;5055598;28;20031;-66
2021/11/16 03:36:45;;;;;;;51.78;25.95;;;128.10;2252.80;;;;;;5054604;28;20020;-65
2021/11/16 03:39:12;;;;;;;52.03;24.42;;;128.10;2252.80;;;;;;5055660;28;20032;-66
2021/11/16 03:41:39;;;;;;;51.55;24.23;;;128.10;2252.80;;;;;;5055456;28;20048;-67
2021/11/16 03:44:05;;;;;;;49.20;24.67;;;128.10;2252.80;;;;;;5055584;28;20029;-65
2021/11/16 03:46:30;;;;;;;50.13;23.63;;;128.20;2252.80;;;;;;5055402;28;20028;-65
2021/11/16 03:48:56;;;;;;;47.20;23.58;;;128.10;2252.80;;;;;;5055250;28;20017;-65
2021/11/16 03:51:23;;;;;;;48.70;23.60;;;128.10;2252.80;;;;;;5055177;28;20028;-66
2021/11/16 03:53:49;;;;;;;47.58;22.98;;;128.10;2252.80;;;;;;5055342;28;20032;-66
2021/11/16 03:56:15;;;;;;;47.40;22.60;;;128.10;2252.80;;;;;;5055172;28;20028;-67
2021/11/16 03:58:43;;;;;;;45.15;23.02;;;128.20;2252.80;;;;;;5055035;28;20363;-64
2021/11/16 04:01:09;;;;;;;42.67;20.85;;;128.20;2252.80;;;;;;5055183;28;20033;-66
2021/11/16 04:03:37;;;;;;;42.83;21.05;;;128.30;2252.80;;;;;;5055214;28;20027;-65
2021/11/16 04:06:05;;;;;;;38.13;17.77;;;128.30;2252.80;;;;;;5054956;28;20033;-67
2021/11/16 04:08:31;;;;;;;40.95;20.08;;;128.40;2252.80;;;;;;5054812;28;20037;-66
2021/11/16 04:10:57;;;;;;;34.95;18.48;;;128.40;2252.80;;;;;;5055147;28;20029;-65
2021/11/16 04:13:23;;;;;;;32.83;16.98;;;128.50;2252.80;;;;;;5054978;28;20044;-61
2021/11/16 04:15:50;;;;;;;35.95;18.70;;;128.60;2252.80;;;;;;5055010;28;20029;-63
2021/11/16 04:18:16;;;;;;;32.83;17.08;;;128.70;2252.80;;;;;;5054706;28;20082;-64
2021/11/16 04:20:44;;;;;;;33.95;17.45;;;128.70;2252.80;;;;;;5054730;28;20119;-62
2021/11/16 04:23:13;;;;;;;33.42;16.80;;;128.80;2252.80;;;;;;5053555;28;20056;-62
2021/11/16 04:25:39;;;;;;;36.20;16.85;;;128.80;2252.80;;;;;;5054017;28;20029;-62
2021/11/16 04:28:06;;;;;;;33.08;16.90;;;128.90;2252.80;;;;;;5053574;28;20501;-65
2021/11/16 04:30:33;;;;;;;33.25;17.52;;;128.90;2252.80;;;;;;5053763;28;20041;-61
2021/11/16 04:32:59;;;;;;;31.00;16.38;;;153.60;2252.80;;;;;;5053379;28;20090;-66
2021/11/16 04:35:26;;;;;;;36.25;17.42;;;153.60;2252.80;;;;;;5053105;28;20040;-62
2021/11/16 04:37:54;;;;;;;33.08;16.92;;;153.60;2252.80;;;;;;5052938;28;20021;-60
2021/11/16 04:40:30;;;;;;;29.90;16.35;;;128.90;2252.80;;;;;;5052962;28;20052;-60
2021/11/16 04:42:57;;;;;;;35.45;17.65;;;153.60;2252.80;;;;;;5053407;28;20021;-62
2021/11/16 04:45:24;;;;;;;30.52;16.88;;;153.60;2252.80;;;;;;5053261;28;20033;-61
2021/11/16 04:47:58;;;;;;;36.03;17.63;;;153.60;2252.80;;;;;;5052990;28;20470;-60
2021/11/16 05:03:57;;;;;;;;;;;128.90;2252.80;;;;;;5053474;28;20203;-61
2021/11/16 05:06:24;;;;;;;33.90;17.20;;;128.90;2252.80;;;;;;5052638;28;19912;-60
2021/11/16 05:08:50;;;;;;;32.63;16.55;;;128.90;2252.80;;;;;;5052229;28;20032;-61
2021/11/16 05:11:18;;;;;;;33.45;16.95;;;128.90;2252.80;;;;;;5052724;28;20064;-60
2021/11/16 05:13:44;;;;;;;31.42;15.85;;;128.90;2252.80;;;;;;5052564;28;20025;-66
2021/11/16 05:16:15;;;;;;;29.30;15.13;;;128.90;2252.80;;;;;;5052437;28;20394;-61
2021/11/16 05:18:42;;;;;;;30.38;14.32;;;128.90;2252.80;;;;;;5052443;28;20029;-60
2021/11/16 05:21:09;;;;;;;33.60;16.65;;;153.60;2252.80;;;;;;5044679;28;20044;-60
2021/11/16 05:23:40;;;;;;;31.98;17.55;;;153.60;2252.80;;;;;;5061189;28;20029;-60
2021/11/16 05:26:07;;;;;;;30.52;15.70;;;153.60;2252.80;;;;;;5064661;28;20044;-61
2021/11/16 05:28:33;;;;;;;33.92;16.75;;;153.60;2252.80;;;;;;5064588;28;20048;-62
2021/11/16 05:31:01;;;;;;;32.28;15.48;;;153.70;2252.80;;;;;;5064801;28;20094;-61
2021/11/16 05:33:27;;;;;;;27.65;12.80;;;153.70;2252.80;;;;;;5063507;28;20017;-67
2021/11/16 05:35:58;;;;;;;29.38;15.55;;;153.70;2252.80;;;;;;5059663;28;20045;-67
2021/11/16 05:38:30;;;;;;;28.23;15.23;;;153.70;2252.80;;;;;;5072640;28;20028;-64
2021/11/16 05:40:57;;;;;;;32.60;15.82;;;153.70;2252.80;;;;;;5072980;28;20044;-68
2021/11/16 05:43:23;;;;;;;30.38;15.80;;;153.80;2252.80;;;;;;5072662;28;20029;-65
2021/11/16 05:45:49;;;;;;;32.10;16.13;;;153.80;2252.80;;;;;;5072821;28;20119;-62
2021/11/16 05:48:15;;;;;;;34.15;16.83;;;153.80;2252.80;;;;;;5067112;28;20037;-63
2021/11/16 05:50:42;;;;;;;33.83;15.93;;;153.80;2252.80;;;;;;5051961;28;20831;-64
2021/11/16 05:53:10;;;;;;;34.03;17.20;;;153.80;2252.80;;;;;;5053044;28;20028;-62
2021/11/16 05:55:36;;;;;;;31.48;15.13;;;153.90;2252.80;;;;;;5052320;28;20036;-61
2021/11/16 05:58:03;;;;;;;31.88;16.33;;;153.90;2252.80;;;;;;5052644;28;20048;-63
2021/11/16 06:00:30;;;;;;;32.90;15.88;;;154.00;2252.80;;;;;;5053534;28;20559;-63
2021/11/16 06:02:55;;;;;;;33.10;17.02;;;154.00;2252.80;;;;;;5056143;28;20467;-62
2021/11/16 06:05:21;;;;;;;32.92;17.00;;;154.10;2252.80;;;;;;5057840;28;20029;-62
2021/11/16 06:07:47;;;;;;;30.95;15.80;;;154.10;2252.80;;;;;;5076448;28;20439;-64
2021/11/16 06:10:14;;;;;;;36.10;16.52;;;154.20;2252.80;;;;;;5076650;28;20029;-63
2021/11/16 06:12:41;;;;;;;32.30;16.45;;;154.20;2252.80;;;;;;5075878;28;20024;-62
2021/11/16 06:15:07;;;;;;;33.47;17.73;;;154.40;2252.80;;;;;;5076490;28;20041;-60
2021/11/16 06:17:33;;;;;;;32.00;16.55;;;154.50;2252.80;;;;;;5064180;28;20037;-61
2021/11/16 06:20:00;;;;;;;32.50;15.93;;;179.20;2252.80;;;;;;5055175;28;20540;-62
2021/11/16 06:22:26;;;;;;;28.73;14.45;;;179.20;2252.80;;;;;;5054738;28;20032;-62
2021/11/16 06:24:52;;;;;;;33.90;17.10;;;154.50;2252.80;;;;;;5056199;28;20029;-64
2021/11/16 06:27:18;;;;;;;34.38;16.58;;;179.20;2252.80;;;;;;5056089;28;20471;-63
2021/11/16 06:29:43;;;;;;;34.80;17.92;;;179.20;2252.80;;;;;;5056241;28;20028;-65
2021/11/16 06:32:10;;;;;;;32.78;17.13;;;179.20;2252.80;;;;;;5055776;28;20503;-61
2021/11/16 06:34:36;;;;;;;32.47;17.83;;;179.20;2252.80;;;;;;5055357;28;20749;-61
2021/11/16 06:37:03;;;;;;;31.30;16.38;;;179.30;2252.80;;;;;;5068641;28;20037;-62
2021/11/16 06:39:28;;;;;;;28.95;16.58;;;179.30;2252.80;;;;;;5073791;28;20028;-65
2021/11/16 06:41:55;;;;;;;30.77;16.00;;;179.40;2252.80;;;;;;5075872;28;20127;-63
2021/11/16 06:44:21;;;;;;;31.45;16.30;;;179.50;2252.80;;;;;;5075916;28;20378;-63
2021/11/16 06:46:49;;;;;;;27.85;16.00;;;179.90;2252.80;;;;;;5061886;28;20056;-62
2021/11/16 06:49:17;;;;;;;28.33;15.52;;;205.10;2252.80;;;;;;5055625;28;20033;-62
2021/11/16 06:51:44;;;;;;;31.70;16.90;;;230.50;2252.80;;;;;;5055565;28;20722;-63
2021/11/16 06:54:14;;;;;;;26.90;13.98;;;230.90;2252.80;;;;;;5054224;28;20032;-62
2021/11/16 06:56:41;;;;;;;25.15;14.70;;;256.00;2252.80;;;;;;5055247;28;20040;-65
2021/11/16 06:59:08;;;;;;;23.65;14.40;;;256.70;2252.80;;;;;;5055992;28;20079;-63
2021/11/16 07:01:37;;;;;;;24.10;13.23;;;281.90;2278.40;;;;;;5055060;28;20052;-63
2021/11/16 07:04:09;;;;;;;24.05;13.55;;;282.20;2278.40;;;;;;5055437;28;20216;-61
2021/11/16 07:06:45;;;;;;;25.35;14.02;;;307.20;2304.00;;;;;;5055143;28;20495;-63
2021/11/16 07:09:13;;;;;;;21.15;12.27;;;307.70;2252.80;;;;;;5055421;28;20021;-62
2021/11/16 07:11:45;;;;;;;19.88;11.45;;;307.70;2201.60;;;;;;5053927;28;20040;-62
2021/11/16 07:14:13;;;;;;;20.70;13.32;;;307.80;2124.80;;;;;;5055360;28;20410;-66
2021/11/16 07:16:56;;;;;;;22.80;12.95;;;333.20;2048.00;;;;;;5055194;28;20521;-67
2021/11/16 07:19:36;;;;;;;28.70;18.70;;;333.30;2022.40;;;;;;5054573;28;20029;-68
2021/11/16 07:22:23;;;;;;;27.48;16.30;;;333.70;1945.60;;;;;;5055362;28;20135;-65
2021/11/16 07:24:56;;;;;;;23.50;15.93;;;358.60;1868.80;;;;;;5055101;28;20351;-65
2021/11/16 07:27:41;;;;;;;22.42;13.50;;;358.90;1843.20;;;;;;5055018;28;20165;-62
2021/11/16 07:30:15;;;;;;;20.27;13.48;;;359.10;1766.40;;;;;;5055242;28;20104;-63
2021/11/16 07:32:50;;;;;;;22.13;13.10;;;384.00;1715.20;;;;;;5052784;28;20522;-62
2021/11/16 07:35:21;;;;;;;22.33;14.50;;;384.00;1715.20;;;;;;5055720;28;20100;-63
2021/11/16 07:37:49;;;;;;;21.00;14.98;;;384.50;1689.60;;;;;;5074699;28;20570;-62
2021/11/16 07:40:21;;;;;;;18.90;12.57;;;384.20;1689.60;;;;;;5074920;28;20032;-63
2021/11/16 07:42:49;;;;;;;20.75;12.00;;;359.20;1715.20;;;;;;5074530;28;20035;-63
2021/11/16 07:45:18;;;;;;;24.13;14.85;;;359.20;1689.60;;;;;;5074734;28;20032;-62
2021/11/16 07:47:54;;;;;;;21.67;14.30;;;359.30;1715.20;;;;;;5074569;28;20067;-60
2021/11/16 07:50:32;;;;;;;24.35;15.75;;;384.20;1664.00;;;;;;5074086;28;20032;-62
2021/11/16 07:53:08;;;;;;;18.13;12.60;;;384.60;1664.00;;;;;;5073440;28;20142;-62
2021/11/16 07:55:34;;;;;;;19.92;13.07;;;384.20;1664.00;;;;;;5074464;28;20021;-62
2021/11/16 07:58:05;;;;;;;21.40;13.32;;;384.30;1664.00;;;;;;5074457;28;20037;-62
2021/11/16 08:00:33;;;;;;;20.80;12.68;;;384.30;1638.40;;;;;;5074115;28;20041;-62
2021/11/16 08:03:03;;;;;;;14.43;9.32;;;384.40;1638.40;;;;;;5074481;28;20385;-60
2021/11/16 08:08:12;;;;;;;23.33;16.77;;;384.40;1612.80;;;;;;5054136;28;20041;-62
2021/11/16 08:10:40;;;;;;;27.75;18.52;;;384.70;1612.80;;;;;;5054103;28;20394;-61
2021/11/16 08:13:15;;;;;;;21.85;14.43;;;384.50;1612.80;;;;;;5054092;28;20122;-65
2021/11/16 08:15:43;;;;;;;18.17;10.68;;;409.90;1587.20;;;;;;5053931;28;20028;-62
2021/11/16 08:18:13;;;;;;;18.60;11.73;;;410.30;1510.40;;;;;;5053550;28;20041;-61
2021/11/16 08:20:41;;;;;;;17.77;10.40;;;410.30;1536.00;;;;;;5053789;28;20083;-66
2021/11/16 08:23:08;;;;;;;16.65;11.25;;;410.20;1510.40;;;;;;5053044;28;20402;-60
2021/11/16 08:25:37;;;;;;;16.30;10.68;;;410.30;1510.40;;;;;;5052143;28;20017;-64
2021/11/16 08:28:05;;;;;;;16.45;9.77;;;410.10;1484.80;;;;;;5053519;28;20471;-62
2021/11/16 08:30:35;;;;;;;15.25;9.75;;;410.10;1510.40;;;;;;5052957;28;20056;-64
2021/11/16 08:33:02;;;;;;;14.77;9.55;;;410.10;1510.40;;;;;;5052869;28;20083;-63
2021/11/16 08:35:28;;;;;;;14.13;10.40;;;435.60;1433.60;;;;;;5051300;28;20036;-62
2021/11/16 08:38:01;;;;;;;21.88;13.23;;;460.80;1433.60;;;;;;5052958;28;20352;-63
2021/11/16 08:40:36;;;;;;;12.68;8.93;;;461.00;1382.40;;;;;;5049938;28;20056;-62
2021/11/16 08:43:11;;;;;;;14.40;9.40;;;436.00;1408.00;;;;;;5053122;28;20021;-60
2021/11/16 08:45:38;;;;;;;12.93;9.50;;;461.60;1356.80;;;;;;5053783;28;20056;-63
2021/11/16 08:48:11;;;;;;;16.15;8.90;;;486.70;1331.20;;;;;;5054411;28;20041;-64
2021/11/16 08:50:41;;;;;;;13.10;8.60;;;486.40;1305.60;;;;;;5053022;28;20033;-62
2021/11/16 08:53:14;;;;;;;17.60;9.85;;;486.40;1280.00;;;;;;5053989;28;20532;-63
2021/11/16 08:55:42;;;;;;;13.57;8.38;;;461.70;1331.20;;;;;;5054322;28;20033;-61
2021/11/16 08:58:11;;;;;;;13.45;8.50;;;461.40;1331.20;;;;;;5053695;28;20052;-66
2021/11/16 09:00:44;;;;;;;12.80;8.85;;;461.20;1331.20;;;;;;5054134;28;20043;-67
2021/11/16 09:03:16;;;;;;;12.13;7.35;;;486.50;1305.60;;;;;;5054667;28;20056;-64
2021/11/16 09:05:45;;;;;;;11.80;8.68;;;486.50;1254.40;;;;;;5054086;28;20028;-67
2021/11/16 09:08:26;;;;;;;16.45;8.93;;;486.50;1254.40;;;;;;5052687;28;20063;-67
2021/11/16 09:11:16;;;;;;;14.73;9.25;;;461.30;1305.60;;;;;;5053572;28;20075;-65
2021/11/16 09:13:44;;;;;;;11.90;8.68;;;461.70;1280.00;;;;;;5054062;28;20025;-65
2021/11/16 09:16:14;;;;;;;15.30;9.07;;;486.80;1254.40;;;;;;5052393;28;20029;-62
2021/11/16 09:18:45;;;;;;;9.13;6.72;;;461.60;1280.00;;;;;;5053968;28;20037;-62
2021/11/16 09:21:34;;;;;;;10.43;7.18;;;461.00;1305.60;;;;;;5053638;28;20037;-63
2021/11/16 09:24:00;;;;;;;11.20;7.93;;;460.80;1331.20;;;;;;5050616;28;20033;-66
2021/11/16 09:29:10;;;;;;;16.20;9.18;;;461.40;1305.60;;;;;;5053275;28;20025;-65
2021/11/16 09:31:37;;;;;;;12.25;8.70;;;486.80;1254.40;;;;;;5049818;28;20140;-61
2021/11/16 09:34:06;;;;;;;12.30;8.30;;;487.00;1203.20;;;;;;5051866;28;20017;-64
2021/11/16 09:36:36;;;;;;;15.77;8.57;;;461.60;1280.00;;;;;;5047078;28;20027;-60
2021/11/16 09:39:17;;;;;;;13.60;8.60;;;461.30;1280.00;;;;;;5052120;28;20025;-63
2021/11/16 09:41:55;;;;;;;11.63;8.65;;;461.50;1280.00;;;;;;5048687;28;20491;-63
2021/11/16 09:44:23;;;;;;;11.77;8.55;;;461.60;1305.60;;;;;;5049454;28;20014;-64
2021/11/16 09:46:49;;;;;;;14.43;7.97;;;461.60;1254.40;;;;;;5052149;28;20024;-63
2021/11/16 09:49:17;;;;;;;13.15;8.20;;;486.40;1254.40;;;;;;5053406;28;20028;-64
2021/11/16 09:51:55;;;;;;;11.35;8.02;;;461.50;1254.40;;;;;;5050545;28;20072;-62
2021/11/16 09:54:20;;;;;;;11.55;7.15;;;461.50;1280.00;;;;;;5053144;28;20029;-62
2021/11/16 09:56:47;;;;;;;12.07;7.93;;;461.20;1254.40;;;;;;5053331;28;20591;-63
2021/11/16 09:59:24;;;;;;;12.45;8.93;;;461.20;1280.00;;;;;;5053310;28;20383;-65
2021/11/16 10:01:50;;;;;;;14.25;8.32;;;461.40;1280.00;;;;;;5053346;28;20082;-63
2021/11/16 10:04:23;;;;;;;15.50;8.60;;;486.40;1254.40;;;;;;5053023;28;20104;-64
2021/11/16 10:06:49;;;;;;;12.88;8.82;;;486.60;1228.80;;;;;;5052166;28;20383;-72
2021/11/16 10:09:15;;;;;;;12.68;8.07;;;486.90;1203.20;;;;;;5052999;28;20389;-68
2021/11/16 10:11:43;;;;;;;11.50;8.32;;;461.60;1254.40;;;;;;5053368;28;20021;-61
2021/11/16 10:14:16;;;;;;;14.75;8.98;;;461.60;1254.40;;;;;;5053518;28;20466;-62
2021/11/16 10:16:43;;;;;;;16.13;11.77;;;461.60;1254.40;;;;;;5053419;28;20021;-71
2021/11/16 10:19:09;;;;;;;13.38;9.38;;;486.40;1228.80;;;;;;5053279;28;20468;-71
2021/11/16 10:21:35;;;;;;;14.52;8.52;;;461.70;1254.40;;;;;;5053233;28;20482;-69
2021/11/16 10:24:01;;;;;;;12.75;8.77;;;461.60;1228.80;;;;;;5053386;28;20048;-67
2021/11/16 10:26:32;;;;;;;13.52;8.98;;;461.20;1280.00;;;;;;5052995;28;20467;-66
2021/11/16 10:28:58;;;;;;;11.13;6.22;;;486.60;1228.80;;;;;;5053153;28;20052;-66
2021/11/16 10:31:33;;;;;;;13.68;9.30;;;486.80;1203.20;;;;;;5053137;28;20028;-69
2021/11/16 10:34:00;;;;;;;14.13;9.20;;;486.50;1228.80;;;;;;5053064;28;20021;-67
2021/11/16 10:36:27;;;;;;;15.57;9.57;;;486.50;1228.80;;;;;;5052713;28;20086;-69
2021/11/16 10:39:00;;;;;;;12.13;8.70;;;486.40;1254.40;;;;;;5053098;28;20025;-67
2021/11/16 10:41:35;;;;;;;16.88;9.40;;;486.90;1203.20;;;;;;5052464;28;20580;-66
2021/11/16 10:44:12;;;;;;;14.00;8.68;;;512.50;1152.00;;;;;;5053126;28;20029;-67
2021/11/16 10:46:44;;;;;;;13.52;8.85;;;512.30;1152.00;;;;;;5054197;28;20029;-69
2021/11/16 10:49:14;;;;;;;11.48;7.03;;;538.00;1100.80;;;;;;5056844;28;20024;-69
2021/11/16 10:51:42;;;;;;;14.95;10.15;;;512.30;1126.40;;;;;;5056048;28;20028;-69
2021/11/16 10:54:11;;;;;;;13.85;9.80;;;487.20;1177.60;;;;;;5056363;28;20478;-66
2021/11/16 10:56:39;;;;;;;16.15;10.10;;;487.30;1152.00;;;;;;5056162;28;20467;-68
2021/11/16 10:59:09;;;;;;;14.23;9.70;;;486.90;1228.80;;;;;;5055074;28;20124;-66
2021/11/16 11:01:45;;;;;;;14.35;9.85;;;487.20;1203.20;;;;;;5054836;28;20122;-66
2021/11/16 11:04:15;;;;;;;14.13;9.70;;;486.60;1203.20;;;;;;5054973;28;20017;-67
2021/11/16 11:06:44;;;;;;;15.80;10.10;;;486.80;1228.80;;;;;;5054741;28;20374;-66
2021/11/16 11:09:13;;;;;;;13.63;8.98;;;487.10;1203.20;;;;;;5056195;28;20459;-69
2021/11/16 11:11:42;;;;;;;15.35;9.35;;;512.10;1152.00;;;;;;5056069;28;20106;-67
2021/11/16 11:14:10;;;;;;;13.38;9.05;;;487.00;1177.60;;;;;;5056095;28;20049;-66
2021/11/16 11:16:56;;;;;;;15.98;10.57;;;486.70;1203.20;;;;;;5056131;28;20096;-67
2021/11/16 11:19:30;;;;;;;13.25;8.55;;;487.00;1203.20;;;;;;5039126;28;20071;-68
2021/11/16 11:22:05;;;;;;;13.20;9.18;;;486.70;1203.20;;;;;;5034726;28;20087;-67
2021/11/16 11:24:42;;;;;;;12.43;9.32;;;486.90;1203.20;;;;;;5056669;28;20095;-69
2021/11/16 11:27:28;;;;;;;13.02;9.60;;;486.90;1203.20;;;;;;5075769;28;20420;-67
2021/11/16 11:29:59;;;;;;;12.32;9.23;;;487.10;1203.20;;;;;;5075019;28;20036;-64
2021/11/16 11:32:30;;;;;;;14.57;9.80;;;512.00;1177.60;;;;;;5073864;28;20027;-67
2021/11/16 11:35:00;;;;;;;15.13;9.68;;;487.20;1203.20;;;;;;5074879;28;20115;-62
2021/11/16 11:37:36;;;;;;;16.25;10.48;;;486.90;1203.20;;;;;;5058777;28;20083;-65
2021/11/16 11:40:08;;;;;;;17.65;12.88;;;487.00;1203.20;;;;;;5048799;28;20427;-63
2021/11/16 11:42:37;;;;;;;16.75;12.40;;;512.30;1177.60;;;;;;5054345;28;20021;-61
2021/11/16 11:45:24;;;;;;;17.48;10.95;;;512.40;1177.60;;;;;;5053905;28;20033;-61
2021/11/16 11:47:54;;;;;;;13.93;9.70;;;512.50;1152.00;;;;;;5053431;28;20021;-64
2021/11/16 11:50:22;;;;;;;14.75;10.70;;;487.10;1177.60;;;;;;5054301;28;20061;-68
2021/11/16 11:52:49;;;;;;;15.38;10.75;;;486.70;1228.80;;;;;;5054234;28;20021;-62
2021/11/16 11:55:15;;;;;;;14.02;9.77;;;512.20;1152.00;;;;;;5069825;28;20154;-61
2021/11/16 11:57:41;;;;;;;15.07;11.52;;;487.20;1152.00;;;;;;5073487;28;20049;-59
2021/11/16 12:00:08;;;;;;;14.75;10.60;;;487.20;1152.00;;;;;;5061506;28;20041;-64
2021/11/16 12:02:35;;;;;;;14.98;9.52;;;486.90;1203.20;;;;;;5054468;28;20060;-64
2021/11/16 12:05:01;;;;;;;16.42;10.95;;;486.40;1228.80;;;;;;5053635;28;20045;-62
2021/11/16 12:07:29;;;;;;;13.27;9.98;;;487.10;1203.20;;;;;;5053725;28;20096;-61
2021/11/16 12:09:56;;;;;;;15.10;10.18;;;487.00;1177.60;;;;;;5054107;28;20102;-66
2021/11/16 12:12:23;;;;;;;13.43;10.18;;;486.70;1203.20;;;;;;5053989;28;20021;-64
2021/11/16 12:15:07;;;;;;;15.23;11.10;;;486.40;1228.80;;;;;;5054113;28;20099;-63
2021/11/16 12:17:51;;;;;;;14.48;10.35;;;487.20;1177.60;;;;;;5053880;28;20049;-66
2021/11/16 12:20:42;;;;;;;14.95;10.70;;;512.40;1152.00;;;;;;5053644;28;20033;-65
2021/11/16 12:23:15;;;;;;;13.60;10.20;;;512.80;1126.40;;;;;;5031714;28;20112;-64
2021/11/16 12:25:43;;;;;;;15.10;10.63;;;512.00;1177.60;;;;;;5011613;28;20439;-68
2021/11/16 12:28:25;;;;;;;16.05;10.98;;;487.20;1203.20;;;;;;5011803;28;20038;-66
2021/11/16 12:30:52;;;;;;;15.70;11.77;;;486.80;1228.80;;;;;;5011812;28;20171;-65